Time;durP1;ratioP1;P1;durP2;ratioP2;P2;SDS_P1;SDS_P2;PMS_P1;PMS_P2;Temp;Humidity;BMP_temperature;BMP_pressure;BME280_temperature;BME280_humidity;BME280_pressure;Samples;Min_cycle;Max_cycle;Signal;HPM_P1;HPM_P2
2022/08/11 00:02:16;;;;;;;5.35;4.75;;;;;;;21.90;72.69;94799.47;5013286;28;20247;-84
2022/08/11 00:04:44;;;;;;;7.72;4.80;;;;;;;21.84;73.18;94800.25;5013453;28;20207;-82
2022/08/11 00:07:13;;;;;;;5.75;5.15;;;;;;;21.91;72.99;94809.66;5013276;28;20663;-83
2022/08/11 00:09:40;;;;;;;5.88;5.28;;;;;;;21.95;72.86;94810.06;5013528;28;20191;-83
2022/08/11 00:12:14;;;;;;;5.90;5.30;;;;;;;21.87;73.42;94805.06;5013481;28;20192;-82
2022/08/11 00:14:43;;;;;;;5.07;4.68;;;;;;;21.82;73.68;94808.28;5012870;28;20193;-83
2022/08/11 00:17:13;;;;;;;6.43;5.60;;;;;;;21.78;73.69;94814.91;5013120;28;20247;-85
2022/08/11 00:19:44;;;;;;;5.22;4.68;;;;;;;21.66;73.97;94799.09;5013055;28;20188;-85
2022/08/11 00:22:19;;;;;;;5.75;4.43;;;;;;;21.70;74.17;94813.31;5012836;28;20220;-84
2022/08/11 00:24:46;;;;;;;5.78;4.90;;;;;;;21.79;73.92;94806.06;5012284;28;20265;-82
2022/08/11 00:27:14;;;;;;;7.75;4.57;;;;;;;21.66;74.19;94799.09;5012610;28;20660;-83
2022/08/11 00:29:40;;;;;;;5.40;4.68;;;;;;;21.61;75.00;94803.31;5012365;28;20188;-82
2022/08/11 00:32:15;;;;;;;5.22;4.55;;;;;;;21.58;74.82;94801.91;5012644;28;20228;-84
2022/08/11 00:34:46;;;;;;;5.10;4.70;;;;;;;21.58;74.64;94796.72;5012263;28;20579;-82
2022/08/11 00:37:21;;;;;;;5.40;4.90;;;;;;;21.60;74.65;94796.53;5012886;28;20683;-82
2022/08/11 00:39:51;;;;;;;5.22;4.78;;;;;;;21.34;75.04;94764.34;5012997;28;20184;-82
2022/08/11 00:42:34;;;;;;;5.20;4.80;;;;;;;21.57;74.70;94792.50;5012390;28;20216;-80
2022/08/11 00:45:10;;;;;;;5.28;4.40;;;;;;;21.57;74.77;94797.72;5012421;28;20184;-84
2022/08/11 00:47:54;;;;;;;4.72;4.32;;;;;;;21.54;74.79;94793.72;5012270;28;20198;-82
2022/08/11 00:50:27;;;;;;;5.90;5.15;;;;;;;21.52;74.93;94792.31;5012198;28;20226;-84
2022/08/11 00:53:24;;;;;;;4.80;4.30;;;;;;;21.52;75.01;94787.91;5012384;28;20192;-84
2022/08/11 00:56:41;;;;;;;4.85;4.45;;;;;;;21.44;75.14;94772.50;5012653;28;20275;-84
2022/08/11 00:59:47;;;;;;;5.10;4.68;;;;;;;21.47;75.28;94786.94;4951267;28;20199;-83
2022/08/11 01:02:18;;;;;;;9.10;6.10;;;;;;;21.51;75.04;94798.53;4951211;29;20255;-83
2022/08/11 01:05:17;;;;;;;7.75;6.90;;;;;;;21.45;75.37;94792.31;4950843;28;20199;-84
2022/08/11 01:08:21;;;;;;;7.28;6.65;;;;;;;21.39;75.64;94792.34;4875845;29;20237;-85
2022/08/11 01:11:21;;;;;;;8.40;6.53;;;;;;;21.32;76.09;94784.53;4876126;29;20208;-83
2022/08/11 01:14:24;;;;;;;7.53;6.30;;;;;;;21.18;76.35;94775.91;4876442;29;20570;-82
2022/08/11 01:17:33;;;;;;;5.40;4.95;;;;;;;21.25;76.38;94776.72;4820751;29;20215;-83
2022/08/11 01:20:29;;;;;;;5.75;4.95;;;;;;;21.19;76.56;94774.09;4749217;30;20238;-83
2022/08/11 01:23:46;;;;;;;6.10;5.50;;;;;;;21.24;76.76;94782.09;4696020;30;20300;-83
2022/08/11 01:26:54;;;;;;;5.35;4.95;;;;;;;21.22;76.93;94778.91;4695925;30;20708;-82
2022/08/11 01:29:52;;;;;;;5.35;4.70;;;;;;;21.14;76.79;94768.72;4695724;30;20721;-81
2022/08/11 02:01:13;;;;;;;5.60;4.80;;;;;;;20.96;78.36;94758.91;4734866;30;20208;-83
2022/08/11 02:03:47;;;;;;;6.13;5.60;;;;;;;21.02;78.25;94774.50;4765242;30;20248;-82
2022/08/11 02:09:19;;;;;;;7.93;6.13;;;;;;;20.98;78.29;94772.50;4806899;29;20216;-83
2022/08/11 02:11:49;;;;;;;6.57;5.10;;;;;;;20.85;78.45;94757.69;4874104;29;20357;-81
2022/08/11 02:14:27;;;;;;;5.60;5.10;;;;;;;20.86;78.68;94761.94;4919879;29;20199;-83
2022/08/11 02:17:13;;;;;;;5.67;5.03;;;;;;;20.87;78.69;94766.13;4930696;29;20705;-83
2022/08/11 02:25:37;;;;;;;5.53;5.00;;;;;;;20.87;78.70;94771.31;5010921;28;20203;-83
2022/08/11 02:28:10;;;;;;;5.87;5.23;;;;;;;20.86;78.46;94756.72;5010808;28;20197;-80
2022/08/11 02:30:41;;;;;;;6.77;5.83;;;;;;;20.87;78.48;94766.13;5011062;28;20188;-83
2022/08/11 02:33:25;;;;;;;6.20;5.60;;;;;;;20.85;78.60;94772.50;5012475;28;20303;-83
2022/08/11 02:36:01;;;;;;;6.30;5.60;;;;;;;20.79;79.18;94777.50;5012819;28;20254;-84
2022/08/11 02:38:32;;;;;;;6.23;5.63;;;;;;;20.74;79.18;94766.91;5010323;28;20184;-83
2022/08/11 02:42:21;;;;;;;6.90;6.20;;;;;;;20.76;79.09;94769.28;5010580;28;20189;-84
2022/08/11 02:44:15;;;;;;;7.28;5.80;;;;;;;20.66;79.40;94763.69;5010357;28;20307;-84
2022/08/11 02:46:55;;;;;;;8.07;6.83;;;;;;;20.71;79.33;94774.28;5010732;28;20626;-84
2022/08/11 02:49:54;;;;;;;8.63;6.63;;;;;;;20.71;79.57;94767.28;5010396;28;20215;-84
2022/08/11 02:52:41;;;;;;;7.43;6.73;;;;;;;20.65;78.99;94756.91;5010627;28;20200;-84
2022/08/11 02:55:20;;;;;;;11.43;6.87;;;;;;;20.59;79.66;94762.88;5009959;28;20727;-84
2022/08/11 02:57:53;;;;;;;7.30;6.60;;;;;;;20.58;79.84;94762.06;5010285;28;20290;-83
2022/08/11 03:00:21;;;;;;;7.78;6.55;;;;;;;20.60;79.75;94761.91;5010515;28;20255;-84
2022/08/11 03:03:15;;;;;;;8.18;6.25;;;;;;;20.65;79.55;94765.50;5009865;28;20227;-83
2022/08/11 03:05:56;;;;;;;6.70;6.10;;;;;;;20.61;79.69;94766.09;5014258;28;20192;-84
2022/08/11 03:08:40;;;;;;;6.00;5.40;;;;;;;20.59;79.40;94771.47;5010546;28;20200;-84
2022/08/11 03:17:11;;;;;;;5.73;5.27;;;;;;;20.52;79.82;94776.66;5010487;28;20286;-84
2022/08/11 03:19:49;;;;;;;6.17;5.40;;;;;;;20.31;79.59;94745.63;5010551;28;20188;-84
2022/08/11 03:22:24;;;;;;;6.83;5.60;;;;;;;20.49;79.94;94771.06;5009994;28;20191;-83
2022/08/11 03:24:58;;;;;;;5.93;5.43;;;;;;;20.54;79.63;94776.47;5010256;28;20731;-83
2022/08/11 03:27:46;;;;;;;5.57;5.17;;;;;;;20.50;79.60;94768.25;5011641;28;20691;-83
2022/08/11 03:30:17;;;;;;;6.13;5.60;;;;;;;20.46;79.70;94769.63;5017428;28;20189;-83
2022/08/11 03:36:15;;;;;;;6.17;5.57;;;;;;;20.38;79.58;94753.41;5016829;28;20647;-83
2022/08/11 03:39:09;;;;;;;5.97;5.40;;;;;;;20.53;79.65;94769.66;5016512;28;20223;-83
2022/08/11 03:41:44;;;;;;;8.37;5.33;;;;;;;20.49;79.30;94768.47;5029440;28;20211;-81
2022/08/11 03:44:23;;;;;;;5.70;5.10;;;;;;;20.41;79.38;94753.81;5030977;28;20224;-82
2022/08/11 03:47:14;;;;;;;6.03;5.47;;;;;;;20.54;79.46;94774.66;5031634;28;20207;-81
2022/08/11 03:49:56;;;;;;;11.87;6.10;;;;;;;20.48;79.74;94775.47;5031969;28;20184;-81
2022/08/11 03:52:32;;;;;;;5.60;5.10;;;;;;;19.96;79.66;94693.78;5031697;28;20188;-81
2022/08/11 03:55:12;;;;;;;5.27;4.80;;;;;;;20.48;79.91;94772.06;5029724;28;20190;-81
2022/08/11 03:58:14;;;;;;;5.70;5.20;;;;;;;20.54;79.53;94786.84;5028950;28;20227;-84
2022/08/11 04:01:17;;;;;;;5.87;5.10;;;;;;;20.50;79.89;94777.84;5024181;28;20198;-82
2022/08/11 04:04:13;;;;;;;7.23;5.67;;;;;;;20.49;79.72;94781.47;5017431;28;20374;-81
2022/08/11 04:07:13;;;;;;;4.97;4.37;;;;;;;20.43;80.17;94774.44;5014988;28;20200;-82
2022/08/11 04:10:34;;;;;;;6.93;5.30;;;;;;;20.49;79.99;94781.47;5014061;28;20246;-83
2022/08/11 04:13:39;;;;;;;9.00;5.87;;;;;;;20.50;80.07;94780.44;5016421;28;20199;-81
2022/08/11 04:16:15;;;;;;;5.63;5.13;;;;;;;20.56;79.95;94787.47;5019060;28;20559;-82
2022/08/11 04:19:23;;;;;;;5.43;4.87;;;;;;;20.61;79.44;94792.09;5019535;28;20222;-81
2022/08/11 04:22:35;;;;;;;7.30;5.83;;;;;;;20.65;79.43;94781.09;5027233;28;20193;-84
2022/08/11 04:25:35;;;;;;;10.13;5.50;;;;;;;20.64;79.81;94781.28;4970380;28;20194;-82
2022/08/11 04:28:49;;;;;;;5.83;5.33;;;;;;;20.71;79.40;94785.50;4969093;29;20199;-81
2022/08/11 04:31:37;;;;;;;9.07;5.33;;;;;;;20.77;79.41;94786.50;4970684;29;20198;-83
2022/08/11 04:34:37;;;;;;;8.13;5.87;;;;;;;20.93;78.05;94791.31;4969812;29;20317;-81
2022/08/11 04:37:33;;;;;;;6.07;5.47;;;;;;;21.01;77.41;94787.72;4966023;29;20213;-84
2022/08/11 04:40:32;;;;;;;7.50;5.22;;;;;;;20.95;77.60;94786.72;4969005;28;20201;-83
2022/08/11 04:43:47;;;;;;;7.27;6.10;;;;;;;20.93;77.68;94785.31;4969583;29;20222;-82
2022/08/11 04:46:46;;;;;;;8.93;5.80;;;;;;;20.85;78.59;94786.28;4967567;29;20241;-82
2022/08/11 05:01:41;;;;;;;7.22;6.53;;;;;;;21.81;76.17;94801.47;4990565;28;20254;-86
2022/08/11 05:07:47;;;;;;;8.80;6.15;;;;;;;22.33;74.87;94793.72;5016231;28;20223;-82
2022/08/11 05:10:25;;;;;;;13.82;7.22;;;;;;;22.41;72.67;94783.03;5013169;28;20247;-82
2022/08/11 05:12:55;;;;;;;12.82;7.15;;;;;;;22.36;71.75;94754.97;5013159;28;20608;-83
2022/08/11 05:35:30;;;;;;;7.35;4.97;;;;;;;23.27;69.00;94785.91;5012374;28;20200;-84
2022/08/11 05:57:31;;;;;;;6.68;5.80;;;;;;;24.84;64.26;94798.41;5014455;28;20310;-83
2022/08/11 06:00:09;;;;;;;7.95;5.80;;;;;;;24.99;62.82;94800.59;5013975;28;20192;-79
2022/08/11 06:02:41;;;;;;;7.90;5.60;;;;;;;25.07;62.49;94794.25;5020293;28;20211;-85
2022/08/11 06:05:09;;;;;;;11.90;5.78;;;;;;;25.05;62.71;94796.31;5014838;28;20188;-82
2022/08/11 06:07:38;;;;;;;6.03;5.53;;;;;;;25.06;62.33;94797.91;5013944;28;20210;-84
2022/08/11 06:10:07;;;;;;;6.40;5.13;;;;;;;25.08;61.74;94770.50;5015607;28;20720;-82
2022/08/11 06:12:36;;;;;;;5.53;5.03;;;;;;;25.26;61.55;94790.56;5013901;28;20204;-83
2022/08/11 06:15:06;;;;;;;5.95;5.35;;;;;;;25.16;61.10;94774.59;5014360;28;20184;-83
2022/08/11 06:17:36;;;;;;;5.82;5.25;;;;;;;25.28;61.85;94791.13;5013028;28;20211;-82
2022/08/11 06:20:06;;;;;;;5.90;4.97;;;;;;;25.29;61.95;94784.84;5014526;28;20189;-82
2022/08/11 06:22:34;;;;;;;5.40;4.78;;;;;;;25.49;61.26;94793.19;5013947;28;20279;-83
2022/08/11 06:25:04;;;;;;;5.20;4.50;;;;;;;25.70;61.32;94783.94;5012216;28;20222;-83
2022/08/11 06:27:33;;;;;;;5.65;5.15;;;;;;;25.79;60.34;94787.03;5012792;28;20180;-82
2022/08/11 06:30:02;;;;;;;9.25;5.63;;;;;;;25.94;59.59;94789.97;5014335;28;20235;-82
2022/08/11 06:32:34;;;;;;;6.90;5.60;;;;;;;26.02;59.97;94787.00;5013816;28;20228;-83
2022/08/11 06:35:12;;;;;;;6.15;4.68;;;;;;;26.15;59.09;94783.31;5015004;28;20290;-81
2022/08/11 06:37:57;;;;;;;5.95;5.32;;;;;;;26.35;58.64;94788.16;5015945;28;20180;-84
2022/08/11 06:40:36;;;;;;;5.45;4.95;;;;;;;26.47;57.26;94788.16;5016577;28;20272;-84
2022/08/11 06:43:11;;;;;;;6.70;4.85;;;;;;;26.46;57.04;94779.47;5017119;28;20195;-84
2022/08/11 06:45:48;;;;;;;10.20;4.43;;;;;;;26.13;57.49;94745.28;5017590;28;20192;-83
2022/08/11 06:48:17;;;;;;;9.57;5.00;;;;;;;25.86;57.20;94751.00;5016346;28;20207;-82
2022/08/11 06:53:39;;;;;;;5.93;4.50;;;;;;;26.34;56.18;94791.81;5017648;28;20202;-83
2022/08/11 07:01:46;;;;;;;4.15;3.65;;;;;;;26.88;53.49;94781.78;5014028;28;20207;-82
2022/08/11 07:04:21;;;;;;;10.73;4.07;;;;;;;26.99;53.26;94777.53;5012305;28;20220;-82
2022/08/11 07:28:56;;;;;;;6.75;4.10;;;;;;;27.78;51.49;94798.44;5013566;28;20559;-82
2022/08/11 07:31:31;;;;;;;4.78;4.18;;;;;;;27.90;51.24;94795.72;5011525;28;20199;-82
2022/08/11 07:34:09;;;;;;;4.50;3.65;;;;;;;28.00;50.16;94793.22;5013643;28;20227;-82
2022/08/11 07:36:40;;;;;;;9.27;4.15;;;;;;;28.01;50.08;94794.78;5012819;28;20195;-85
2022/08/11 07:39:19;;;;;;;6.45;4.60;;;;;;;27.89;51.64;94799.38;5010933;28;20188;-82
2022/08/11 07:41:47;;;;;;;9.65;4.82;;;;;;;27.60;51.16;94754.81;5013328;28;20196;-82
2022/08/11 07:44:17;;;;;;;5.75;4.10;;;;;;;27.84;51.30;94794.84;5012041;28;20244;-83
2022/08/11 07:52:31;;;;;;;9.30;4.15;;;;;;;28.28;49.75;94792.22;5011505;28;20195;-83
2022/08/11 07:55:00;;;;;;;6.57;3.95;;;;;;;28.43;49.04;94792.44;5011914;28;20181;-82
2022/08/11 08:19:37;;;;;;;4.60;3.85;;;;;;;28.75;47.18;94781.97;5016150;28;20372;-80
2022/08/11 08:22:04;;;;;;;3.90;3.58;;;;;;;28.70;47.09;94773.22;5015534;28;20188;-86
2022/08/11 08:24:32;;;;;;;4.78;3.88;;;;;;;28.64;47.34;94780.28;5016826;28;20228;-80
2022/08/11 08:26:59;;;;;;;3.45;3.13;;;;;;;28.81;46.67;94780.19;5016122;28;20227;-82
2022/08/11 08:32:16;;;;;;;5.90;3.55;;;;;;;29.12;46.11;94769.94;5014805;28;20266;-84
2022/08/11 08:34:44;;;;;;;4.10;3.80;;;;;;;29.30;46.00;94766.91;5015857;28;20319;-85
2022/08/11 08:37:11;;;;;;;5.70;3.60;;;;;;;29.47;45.98;94770.19;5014362;28;20192;-84
2022/08/11 08:39:39;;;;;;;7.07;3.95;;;;;;;29.30;45.66;94768.75;5013953;28;20189;-79
2022/08/11 08:42:11;;;;;;;5.45;3.78;;;;;;;29.24;45.89;94763.44;5015713;28;20196;-82
2022/08/11 08:44:44;;;;;;;3.42;3.13;;;;;;;29.33;45.94;94761.16;5016495;28;20224;-83
2022/08/11 08:47:17;;;;;;;6.63;3.53;;;;;;;29.31;45.66;94730.81;5017825;28;20568;-83
2022/08/11 08:49:49;;;;;;;7.40;3.45;;;;;;;29.69;45.19;94762.19;5014426;28;20192;-82
2022/08/11 08:52:20;;;;;;;3.75;3.50;;;;;;;29.78;45.16;94759.84;5018194;28;20677;-80
2022/08/11 08:54:53;;;;;;;4.13;3.50;;;;;;;29.38;43.93;94753.25;5016026;28;20192;-82
2022/08/11 08:57:23;;;;;;;3.42;3.17;;;;;;;29.46;43.94;94765.19;5014822;28;20695;-81
2022/08/11 08:59:51;;;;;;;3.63;3.25;;;;;;;29.27;44.37;94758.72;5013796;28;20672;-82
2022/08/11 09:02:24;;;;;;;3.92;3.63;;;;;;;29.36;44.05;94760.66;5015046;28;20207;-84
2022/08/11 09:04:52;;;;;;;3.78;3.30;;;;;;;29.49;44.22;94759.38;5014132;28;20220;-84
2022/08/11 09:07:23;;;;;;;3.83;3.53;;;;;;;29.44;44.08;94760.16;5014361;28;20574;-82
2022/08/11 09:09:52;;;;;;;4.57;3.80;;;;;;;29.37;45.13;94753.53;5014317;28;20200;-86
2022/08/11 09:12:21;;;;;;;4.47;4.07;;;;;;;29.11;45.21;94739.38;5014736;28;20195;-82
2022/08/11 09:15:02;;;;;;;4.13;3.83;;;;;;;29.13;45.00;94751.25;5014516;28;20664;-82
2022/08/11 09:17:40;;;;;;;4.00;3.60;;;;;;;29.07;45.13;94749.63;5015153;28;20188;-83
2022/08/11 09:20:11;;;;;;;5.07;4.10;;;;;;;29.03;45.66;94739.84;5014011;28;20192;-84
2022/08/11 09:28:14;;;;;;;3.55;3.00;;;;;;;28.83;45.34;94749.13;5013963;28;20242;-83
2022/08/11 09:30:46;;;;;;;4.47;3.42;;;;;;;28.88;44.39;94745.75;5013692;28;20271;-84
2022/08/11 09:33:17;;;;;;;3.97;3.67;;;;;;;28.89;44.72;94750.78;5011729;28;20624;-84
2022/08/11 09:35:50;;;;;;;4.07;3.22;;;;;;;28.97;43.31;94750.34;5012186;28;20215;-83
2022/08/11 09:41:06;;;;;;;3.15;2.85;;;;;;;28.71;44.05;94703.75;5011282;28;20180;-81
2022/08/11 09:46:27;;;;;;;3.10;2.53;;;;;;;29.03;42.57;94738.00;5011193;28;20188;-83
2022/08/11 09:48:59;;;;;;;3.50;3.20;;;;;;;29.07;42.59;94731.19;5011058;28;20184;-83
2022/08/11 09:51:31;;;;;;;3.50;3.20;;;;;;;28.93;43.33;94709.72;5011086;28;20668;-83
2022/08/11 09:54:00;;;;;;;4.57;3.38;;;;;;;28.84;44.10;94698.06;5010872;28;20188;-81
2022/08/11 09:59:13;;;;;;;7.82;4.15;;;;;;;29.18;44.47;94721.50;5010970;28;20230;-84
2022/08/11 10:01:43;;;;;;;8.55;3.80;;;;;;;28.91;44.88;94711.81;5010674;28;20200;-83
2022/08/11 10:04:18;;;;;;;5.25;3.47;;;;;;;28.79;45.48;94711.19;5010603;28;20220;-83
2022/08/11 10:07:04;;;;;;;5.38;3.72;;;;;;;28.72;45.29;94703.50;5010714;28;20188;-82
2022/08/11 10:09:38;;;;;;;5.47;3.45;;;;;;;28.85;45.18;94712.03;5011240;28;20208;-80
2022/08/11 10:12:08;;;;;;;3.85;3.22;;;;;;;28.87;43.81;94712.56;5013673;28;20528;-83
2022/08/11 10:17:26;;;;;;;6.97;3.20;;;;;;;28.81;43.97;94710.94;5012301;28;20196;-83
2022/08/11 10:19:56;;;;;;;3.70;3.40;;;;;;;28.77;44.12;94701.97;5012949;28;20234;-82
2022/08/11 10:27:58;;;;;;;4.20;3.78;;;;;;;29.02;44.63;94715.34;5011308;28;20215;-80
2022/08/11 10:36:00;;;;;;;3.83;3.53;;;;;;;28.89;44.56;94710.50;5014950;28;20802;-84
2022/08/11 10:38:28;;;;;;;6.07;3.38;;;;;;;28.84;45.06;94711.22;5012986;28;20224;-84
2022/08/11 10:43:39;;;;;;;3.70;3.40;;;;;;;28.84;43.99;94674.34;5012971;28;20238;-82
2022/08/11 10:48:54;;;;;;;4.18;3.78;;;;;;;28.82;43.00;94694.88;5018265;28;20281;-83
2022/08/11 10:59:42;;;;;;;4.10;3.80;;;;;;;28.72;43.33;94695.63;5016623;28;20676;-83
2022/08/11 11:02:13;;;;;;;3.75;3.45;;;;;;;28.71;43.87;94688.78;5013218;28;20212;-82
2022/08/11 11:04:56;;;;;;;3.80;3.30;;;;;;;28.74;43.53;94690.88;5013405;28;20278;-81
2022/08/11 11:07:35;;;;;;;3.70;3.40;;;;;;;28.86;43.50;94682.03;5010829;28;20307;-82
2022/08/11 11:10:06;;;;;;;4.80;3.60;;;;;;;28.91;43.53;94677.56;5012571;28;20283;-82
2022/08/11 11:18:11;;;;;;;3.97;3.30;;;;;;;29.07;45.23;94667.97;5010051;28;20575;-81
2022/08/11 11:20:41;;;;;;;4.13;3.67;;;;;;;29.13;45.18;94682.75;5009658;28;20207;-82
2022/08/11 11:23:16;;;;;;;4.38;3.97;;;;;;;29.05;43.65;94669.28;5010161;28;20196;-80
2022/08/11 11:26:22;;;;;;;9.35;3.65;;;;;;;29.11;43.48;94676.19;5010261;28;20234;-82
2022/08/11 11:29:25;;;;;;;3.70;3.40;;;;;;;29.16;42.89;94676.22;4949186;29;20672;-82
2022/08/11 11:32:06;;;;;;;6.45;3.97;;;;;;;28.99;42.61;94652.66;4949429;29;20190;-83
2022/08/11 11:35:00;;;;;;;3.80;3.50;;;;;;;29.18;42.56;94680.16;4949617;29;20219;-81
2022/08/11 11:37:32;;;;;;;4.05;3.70;;;;;;;29.22;42.42;94673.34;4949550;29;20328;-81
2022/08/11 11:40:02;;;;;;;3.70;3.40;;;;;;;28.92;41.79;94642.31;4949706;29;20206;-83
2022/08/11 11:42:30;;;;;;;4.40;3.63;;;;;;;29.13;42.35;94674.06;4949866;29;20217;-82
2022/08/11 11:44:58;;;;;;;4.53;3.20;;;;;;;29.02;42.35;94648.72;4950187;29;20218;-84
2022/08/11 11:47:28;;;;;;;3.95;3.65;;;;;;;29.21;42.25;94669.13;4949507;29;20202;-83
2022/08/11 11:49:56;;;;;;;4.63;3.67;;;;;;;29.19;42.61;94652.00;4953504;28;20218;-81
2022/08/11 11:52:23;;;;;;;3.72;3.42;;;;;;;29.21;42.36;94666.47;4954960;29;20588;-82
2022/08/11 11:54:54;;;;;;;4.38;3.97;;;;;;;29.22;42.94;94667.28;4953395;29;20206;-82
2022/08/11 12:02:58;;;;;;;6.35;3.85;;;;;;;29.33;43.30;94655.75;4953674;29;20205;-83
2022/08/11 12:05:26;;;;;;;4.05;3.75;;;;;;;29.43;43.29;94655.78;4974247;28;20230;-84
2022/08/11 12:08:13;;;;;;;4.65;4.07;;;;;;;29.48;42.77;94653.19;5014255;28;20184;-85
2022/08/11 12:10:43;;;;;;;4.80;3.70;;;;;;;29.55;42.88;94649.53;5013744;28;20258;-85
2022/08/11 12:15:59;;;;;;;4.22;3.83;;;;;;;29.61;41.73;94649.31;5014764;28;20231;-84
2022/08/11 12:18:26;;;;;;;10.07;3.88;;;;;;;29.48;42.11;94644.47;5015186;28;20196;-83
2022/08/11 12:20:53;;;;;;;4.22;3.85;;;;;;;29.55;42.70;94639.00;5015073;28;20196;-83
2022/08/11 12:29:05;;;;;;;4.93;4.03;;;;;;;29.32;43.70;94653.34;5019674;28;20302;-83
2022/08/11 12:31:33;;;;;;;5.07;3.70;;;;;;;29.24;44.13;94638.84;5017114;28;20196;-83
2022/08/11 12:34:03;;;;;;;5.20;3.83;;;;;;;29.25;44.03;94640.44;5014080;28;20227;-83
2022/08/11 12:36:35;;;;;;;5.18;4.20;;;;;;;29.28;44.64;94645.19;5015221;28;20191;-83
2022/08/11 12:39:05;;;;;;;4.50;3.38;;;;;;;29.11;44.93;94634.03;5012535;28;20200;-83
2022/08/11 12:47:09;;;;;;;4.82;3.70;;;;;;;28.76;45.42;94661.69;5015744;28;20191;-85
2022/08/11 12:52:28;;;;;;;3.88;2.80;;;;;;;28.59;44.88;94650.50;5014879;28;20187;-83
2022/08/11 12:55:02;;;;;;;5.05;3.40;;;;;;;28.30;45.76;94663.88;5016347;28;20207;-84
2022/08/11 13:05:55;;;;;;;3.45;3.25;;;;;;;27.55;48.86;94660.16;5015318;28;20306;-84
2022/08/11 13:08:24;;;;;;;3.63;3.33;;;;;;;27.15;48.92;94632.31;5016239;28;20196;-82
2022/08/11 13:13:41;;;;;;;3.67;3.00;;;;;;;27.17;49.39;94667.03;5016643;28;20671;-83
2022/08/11 13:16:10;;;;;;;6.25;3.17;;;;;;;27.20;49.29;94665.72;5016556;28;20247;-83
2022/08/11 13:18:41;;;;;;;5.65;3.03;;;;;;;27.22;49.67;94663.69;5019296;28;20196;-82
2022/08/11 13:21:10;;;;;;;3.92;3.60;;;;;;;27.37;49.26;94665.69;5016414;28;20188;-84
2022/08/11 13:23:39;;;;;;;3.50;3.20;;;;;;;27.36;49.31;94664.13;5015803;28;20185;-84
2022/08/11 13:26:07;;;;;;;5.80;3.30;;;;;;;27.47;49.32;94658.75;5015335;28;20215;-83
2022/08/11 13:28:35;;;;;;;4.80;3.72;;;;;;;27.41;49.03;94651.84;5014457;28;20279;-83
2022/08/11 13:31:13;;;;;;;4.00;3.60;;;;;;;27.41;49.40;94658.91;5013973;28;20227;-81
2022/08/11 13:33:44;;;;;;;3.50;3.20;;;;;;;27.53;48.42;94656.97;5013933;28;20278;-84
2022/08/11 13:36:14;;;;;;;3.95;2.80;;;;;;;27.57;47.66;94647.56;5014776;28;20200;-84
2022/08/11 13:38:43;;;;;;;3.38;3.08;;;;;;;27.57;47.58;94647.56;5016473;28;20212;-83
2022/08/11 13:43:55;;;;;;;4.10;3.30;;;;;;;27.43;47.26;94648.97;5014890;28;20188;-83
2022/08/11 13:46:23;;;;;;;2.47;2.28;;;;;;;27.43;47.21;94634.00;5014384;28;20282;-86
2022/08/11 13:48:53;;;;;;;3.70;2.45;;;;;;;27.44;46.68;94634.81;5013705;28;20192;-84
2022/08/11 13:51:31;;;;;;;5.53;2.72;;;;;;;27.54;47.22;94636.75;5013618;28;20254;-85
2022/08/11 13:54:00;;;;;;;5.25;3.10;;;;;;;27.41;46.53;94606.38;5014485;28;20196;-81
2022/08/11 13:56:28;;;;;;;3.00;2.80;;;;;;;27.59;46.68;94634.19;5012920;28;20211;-85
2022/08/11 13:58:56;;;;;;;3.13;2.90;;;;;;;27.48;46.79;94593.88;5015108;28;20664;-84
2022/08/11 14:01:26;;;;;;;3.63;3.35;;;;;;;27.56;46.64;94624.97;5015099;28;20191;-83
2022/08/11 14:03:55;;;;;;;3.22;2.92;;;;;;;27.57;46.96;94623.94;5015526;28;20188;-84
2022/08/11 14:06:23;;;;;;;2.65;2.45;;;;;;;27.40;46.77;94608.22;5013572;28;20599;-85
2022/08/11 14:08:53;;;;;;;2.83;2.58;;;;;;;27.57;45.61;94628.38;5012654;28;20196;-82
2022/08/11 14:14:08;;;;;;;4.13;3.15;;;;;;;27.59;44.82;94621.03;5012924;28;20183;-80
2022/08/11 14:16:42;;;;;;;2.97;2.78;;;;;;;27.23;44.81;94575.97;5011992;28;20192;-83
2022/08/11 14:19:14;;;;;;;3.25;3.05;;;;;;;27.57;45.27;94620.50;5013294;28;20196;-85
2022/08/11 14:24:27;;;;;;;3.20;3.00;;;;;;;27.57;45.47;94618.66;5012581;28;20271;-82
2022/08/11 14:26:55;;;;;;;3.35;3.05;;;;;;;27.52;45.53;94616.00;5012344;28;20220;-84
2022/08/11 14:29:25;;;;;;;3.45;3.15;;;;;;;27.55;45.70;94614.69;5013730;28;20204;-85
2022/08/11 14:31:55;;;;;;;3.58;3.15;;;;;;;27.66;45.42;94625.06;5013291;28;20259;-82
2022/08/11 14:34:28;;;;;;;4.22;3.15;;;;;;;27.63;45.22;94614.25;5011882;28;20188;-84
2022/08/11 14:36:58;;;;;;;5.00;3.38;;;;;;;27.67;44.51;94621.41;5012024;28;20677;-85
2022/08/11 14:39:26;;;;;;;3.60;3.30;;;;;;;27.56;44.41;94603.94;5011697;28;20207;-82
2022/08/11 14:47:34;;;;;;;3.40;3.10;;;;;;;27.53;45.07;94617.56;5015194;28;20311;-82
2022/08/11 14:50:05;;;;;;;3.42;3.13;;;;;;;27.32;45.32;94581.59;5013030;28;20191;-82
2022/08/11 14:52:34;;;;;;;3.67;3.40;;;;;;;27.63;45.63;94622.13;5012384;28;20197;-81
2022/08/11 14:57:50;;;;;;;3.40;3.20;;;;;;;27.59;46.19;94600.84;5014034;28;20635;-82
2022/08/11 15:00:18;;;;;;;3.72;3.42;;;;;;;27.67;45.79;94610.09;5013776;28;20184;-81
2022/08/11 15:05:50;;;;;;;3.80;3.50;;;;;;;27.65;46.82;94604.31;4970214;28;20213;-84
2022/08/11 15:08:18;;;;;;;7.47;3.40;;;;;;;27.63;46.60;94607.16;4970334;28;20268;-83
2022/08/11 15:10:48;;;;;;;3.72;3.42;;;;;;;27.60;47.11;94604.25;4970480;28;20193;-83
2022/08/11 15:13:18;;;;;;;3.90;3.30;;;;;;;27.57;47.43;94600.28;4970200;28;20198;-85
2022/08/11 15:18:31;;;;;;;3.75;3.45;;;;;;;27.76;46.65;94598.13;4972807;28;20264;-82
2022/08/11 15:37:45;;;;;;;5.10;3.42;;;;;;;27.22;48.31;94596.19;5014914;28;20250;-84
2022/08/11 15:45:55;;;;;;;4.03;3.60;;;;;;;27.04;48.41;94600.91;5016901;28;20207;-82
2022/08/11 15:48:30;;;;;;;5.28;3.45;;;;;;;27.00;48.79;94593.53;5016157;28;20203;-81
2022/08/11 15:51:02;;;;;;;3.65;3.35;;;;;;;27.13;48.27;94589.78;5016564;28;20199;-83
2022/08/11 15:53:37;;;;;;;3.47;3.17;;;;;;;26.80;48.15;94567.00;5016277;28;20189;-83
2022/08/11 15:56:05;;;;;;;3.90;3.50;;;;;;;26.90;48.34;94595.19;5016793;28;20199;-83
2022/08/11 16:04:14;;;;;;;3.92;3.60;;;;;;;26.68;48.30;94598.56;5031940;28;20260;-81
2022/08/11 16:06:53;;;;;;;3.55;3.25;;;;;;;26.80;47.98;94608.97;5029852;28;20276;-84
2022/08/11 16:09:27;;;;;;;3.83;3.20;;;;;;;26.82;47.31;94608.75;5021804;28;20226;-82
2022/08/11 16:11:57;;;;;;;3.72;3.42;;;;;;;26.68;47.40;94603.81;5018502;28;20706;-85
2022/08/11 16:17:12;;;;;;;4.30;3.15;;;;;;;26.42;47.92;94599.19;5014579;28;20331;-83
2022/08/11 16:19:41;;;;;;;3.33;3.03;;;;;;;26.49;47.42;94605.09;5013953;28;20267;-81
2022/08/11 16:22:10;;;;;;;4.72;3.00;;;;;;;26.57;47.17;94604.72;5015228;28;20224;-81
2022/08/11 16:24:43;;;;;;;2.92;2.72;;;;;;;26.44;47.38;94605.03;5014870;28;20627;-81
2022/08/11 16:27:13;;;;;;;6.47;2.92;;;;;;;26.42;47.33;94607.06;5014659;28;20228;-81
2022/08/11 16:29:44;;;;;;;4.45;2.80;;;;;;;26.52;47.00;94609.88;5014750;28;20227;-79
2022/08/11 16:32:20;;;;;;;4.97;3.33;;;;;;;26.48;47.04;94603.53;5014479;28;20607;-81
2022/08/11 16:40:24;;;;;;;3.53;3.22;;;;;;;26.43;47.03;94611.28;5014374;28;20192;-82
2022/08/11 16:48:28;;;;;;;7.05;3.67;;;;;;;26.34;47.51;94603.03;5013454;28;20211;-82
2022/08/11 16:50:58;;;;;;;3.45;2.90;;;;;;;26.60;46.83;94624.41;5013623;28;20583;-81
2022/08/11 16:53:25;;;;;;;6.50;3.20;;;;;;;26.54;47.08;94620.91;5013870;28;20246;-81
2022/08/11 16:55:55;;;;;;;3.40;3.10;;;;;;;26.32;47.45;94625.25;5013537;28;20200;-82
2022/08/11 17:01:13;;;;;;;4.30;3.70;;;;;;;26.33;47.53;94626.84;4953497;29;20244;-80
2022/08/11 17:14:51;;;;;;;3.13;2.83;;;;;;;26.43;47.78;94630.44;4956273;28;20318;-80
2022/08/11 17:17:26;;;;;;;3.35;3.05;;;;;;;26.35;47.76;94632.66;4952018;29;20190;-80
2022/08/11 17:19:57;;;;;;;4.32;3.13;;;;;;;26.36;47.59;94639.47;4953584;29;20205;-81
2022/08/11 17:25:13;;;;;;;5.32;3.80;;;;;;;26.19;48.18;94653.38;4953347;28;20193;-81
2022/08/11 17:27:43;;;;;;;5.57;3.20;;;;;;;26.16;48.20;94651.19;4951612;29;20219;-83
2022/08/11 17:30:12;;;;;;;5.65;3.70;;;;;;;26.13;48.31;94645.66;4953518;29;20193;-82
2022/08/11 17:35:30;;;;;;;3.53;3.33;;;;;;;26.11;48.51;94650.31;4954717;29;20213;-82
2022/08/11 17:38:02;;;;;;;4.80;3.70;;;;;;;26.06;48.38;94652.88;4977734;28;20683;-81
2022/08/11 17:40:31;;;;;;;5.00;4.50;;;;;;;26.05;48.23;94664.38;5012988;28;20262;-83
2022/08/11 17:48:37;;;;;;;4.03;3.72;;;;;;;25.93;48.66;94672.28;5012385;28;20180;-83